createdAt,value
2022-09-07T00:02:24.340Z,23.20
2022-09-07T00:05:45.249Z,23.40
2022-09-07T00:08:47.272Z,23.50
2022-09-07T00:12:09.561Z,23.50
2022-09-07T00:15:06.012Z,23.10
2022-09-07T00:21:04.910Z,23.00
2022-09-07T00:23:55.711Z,23.00
2022-09-07T00:26:58.996Z,23.20
2022-09-07T00:30:09.692Z,22.80
2022-09-07T00:33:16.542Z,22.60
2022-09-07T00:36:44.294Z,22.40
2022-09-07T00:39:36.949Z,22.50
2022-09-07T00:42:51.033Z,22.50
2022-09-07T00:45:40.108Z,22.60
2022-09-07T00:48:35.768Z,22.60
2022-09-07T00:52:09.328Z,22.40
2022-09-07T00:55:14.945Z,22.50
2022-09-07T00:58:13.896Z,22.50
2022-09-07T01:00:59.090Z,22.40
2022-09-07T01:08:18.918Z,22.00
2022-09-07T01:11:21.059Z,22.10
2022-09-07T01:17:28.388Z,21.90
2022-09-07T01:24:59.538Z,21.90
2022-09-07T01:28:31.206Z,22.10
2022-09-07T01:34:29.155Z,22.30
2022-09-07T01:37:55.044Z,22.50
2022-09-07T01:41:11.155Z,22.70
2022-09-07T01:44:10.300Z,22.50
2022-09-07T01:47:31.517Z,22.40
2022-09-07T01:50:32.647Z,22.50
2022-09-07T01:53:40.469Z,22.50
2022-09-07T02:03:16.204Z,22.60
2022-09-07T02:06:05.138Z,22.60
2022-09-07T02:09:03.443Z,22.50
2022-09-07T02:11:40.550Z,22.40
2022-09-07T02:14:15.137Z,22.40
2022-09-07T02:16:52.740Z,22.30
2022-09-07T02:20:04.631Z,22.20
2022-09-07T02:23:12.264Z,22.10
2022-09-07T02:26:39.337Z,22.30
2022-09-07T02:36:51.379Z,22.60
2022-09-07T02:43:40.094Z,22.50
2022-09-07T02:47:25.032Z,22.50
2022-09-07T02:51:24.227Z,22.80
2022-09-07T02:54:42.213Z,22.60
2022-09-07T02:57:29.260Z,22.70
2022-09-07T03:00:36.539Z,22.70
2022-09-07T03:03:39.138Z,22.60
2022-09-07T03:06:43.655Z,22.40
2022-09-07T03:12:29.346Z,22.40
2022-09-07T03:15:44.535Z,22.30
2022-09-07T03:18:43.636Z,22.30
2022-09-07T03:25:00.166Z,22.10
2022-09-07T03:27:46.187Z,22.10
2022-09-07T03:30:31.902Z,22.20
2022-09-07T03:33:12.755Z,22.10
2022-09-07T03:36:24.601Z,22.10
2022-09-07T03:39:20.204Z,22.30
2022-09-07T03:42:42.057Z,22.20
2022-09-07T03:45:28.427Z,22.40
2022-09-07T03:48:37.558Z,22.40
2022-09-07T03:51:37.100Z,22.40
2022-09-07T03:54:25.317Z,22.60
2022-09-07T03:57:37.433Z,22.50
2022-09-07T04:00:52.061Z,22.40
2022-09-07T04:03:43.651Z,22.30
2022-09-07T04:07:04.940Z,22.50
2022-09-07T04:10:12.402Z,22.70
2022-09-07T04:17:06.607Z,22.20
2022-09-07T04:23:29.644Z,22.20
2022-09-07T04:26:37.900Z,22.30
2022-09-07T04:29:41.217Z,22.10
2022-09-07T04:32:56.905Z,22.00
2022-09-07T04:35:57.347Z,21.70
2022-09-07T04:38:48.108Z,21.40
2022-09-07T04:41:47.107Z,21.50
2022-09-07T04:44:44.280Z,21.40
2022-09-07T04:47:51.255Z,21.50
2022-09-07T04:51:05.913Z,21.50
2022-09-07T04:54:22.325Z,21.40
2022-09-07T04:57:37.280Z,21.50
2022-09-07T05:00:53.529Z,21.50
2022-09-07T05:03:47.584Z,21.40
2022-09-07T05:07:01.251Z,21.50
2022-09-07T05:09:46.527Z,21.40
2022-09-07T05:12:54.300Z,21.50
2022-09-07T05:16:01.185Z,21.70
2022-09-07T05:18:59.701Z,21.60
2022-09-07T05:21:37.223Z,21.50
2022-09-07T05:25:02.700Z,21.40
2022-09-07T05:27:55.675Z,21.50
2022-09-07T05:37:35.240Z,21.50
2022-09-07T05:40:31.931Z,21.50
2022-09-07T05:47:01.209Z,21.60
2022-09-07T05:50:05.626Z,21.70
2022-09-07T05:53:30.194Z,21.80
2022-09-07T05:56:37.871Z,21.80
2022-09-07T05:59:38.013Z,22.00
2022-09-07T06:02:55.440Z,22.00
2022-09-07T06:06:03.380Z,22.10
2022-09-07T06:20:52.886Z,21.90
2022-09-07T06:24:12.546Z,22.00
2022-09-07T06:27:29.961Z,22.00
2022-09-07T06:31:02.271Z,22.20
2022-09-07T06:34:56.330Z,22.40
2022-09-07T06:37:55.596Z,22.60
2022-09-07T06:48:09.052Z,23.20
2022-09-07T07:11:59.898Z,23.70
2022-09-07T07:19:44.262Z,23.90
2022-09-07T07:23:44.287Z,24.10
2022-09-07T07:26:36.025Z,24.10
2022-09-07T07:39:06.728Z,24.60
2022-09-07T07:46:12.675Z,24.70
2022-09-07T07:53:42.417Z,24.60
2022-09-07T08:07:11.310Z,25.00
2022-09-07T08:10:24.905Z,25.20
2022-09-07T08:14:04.425Z,25.30
2022-09-07T08:17:37.858Z,25.40
2022-09-07T08:25:57.053Z,25.80
2022-09-07T08:36:00.842Z,25.90
2022-09-07T08:39:30.382Z,25.70
2022-09-07T08:43:07.457Z,25.90
2022-09-07T08:47:06.859Z,26.10
2022-09-07T08:50:42.803Z,26.40
2022-09-07T08:53:57.875Z,26.40
2022-09-07T09:17:22.397Z,26.60
2022-09-07T09:49:13.532Z,27.60
2022-09-07T10:05:08.825Z,27.50
2022-09-07T10:08:51.891Z,27.80
2022-09-07T10:15:55.746Z,28.40
2022-09-07T10:19:10.467Z,28.50
2022-09-07T10:22:53.980Z,28.80
2022-09-07T10:25:17.925Z,28.70
2022-09-07T10:31:36.409Z,28.80
2022-09-07T10:35:02.876Z,28.90
2022-09-07T10:38:36.863Z,29.00
2022-09-07T10:41:31.901Z,28.90
2022-09-07T10:44:19.272Z,28.90
2022-09-07T10:47:05.135Z,28.90
2022-09-07T10:50:48.878Z,29.00
2022-09-07T10:54:41.929Z,28.90
2022-09-07T11:05:44.833Z,29.10
2022-09-07T11:18:18.290Z,29.20
2022-09-07T11:21:56.137Z,28.90
2022-09-07T11:38:17.119Z,29.50
2022-09-07T11:42:45.982Z,29.70
2022-09-07T11:46:10.548Z,29.70
2022-09-07T11:49:15.669Z,29.40
2022-09-07T11:52:58.599Z,29.30
2022-09-07T12:04:15.361Z,29.60
2022-09-07T12:17:49.226Z,29.70
2022-09-07T12:35:15.050Z,29.80
2022-09-07T13:36:07.618Z,30.30
2022-09-07T13:39:33.883Z,30.10
2022-09-07T14:15:43.532Z,30.30
2022-09-07T14:18:45.326Z,30.00
2022-09-07T14:22:04.425Z,29.70
2022-09-07T14:30:17.795Z,29.60
2022-09-07T14:36:52.054Z,29.60
2022-09-07T14:39:37.630Z,29.40
2022-09-07T14:42:22.875Z,29.50
2022-09-07T15:00:33.571Z,29.80
2022-09-07T15:03:41.208Z,30.00
2022-09-07T15:09:12.461Z,30.00
2022-09-07T15:11:45.583Z,29.90
2022-09-07T15:14:34.926Z,29.80
2022-09-07T15:17:43.259Z,29.80
2022-09-07T15:20:54.476Z,29.80
2022-09-07T15:24:16.434Z,29.80
2022-09-07T15:27:25.670Z,30.10
2022-09-07T15:29:57.051Z,30.10
2022-09-07T15:32:34.162Z,29.90
2022-09-07T15:35:20.421Z,29.60
2022-09-07T15:38:01.892Z,29.20
2022-09-07T15:48:25.201Z,28.80
2022-09-07T15:54:12.835Z,28.90
2022-09-07T16:03:04.243Z,29.00
2022-09-07T16:13:53.144Z,28.80
2022-09-07T16:23:55.745Z,29.10
2022-09-07T16:26:51.404Z,28.90
2022-09-07T16:29:42.738Z,28.60
2022-09-07T17:15:14.463Z,27.40
2022-09-07T17:22:45.184Z,27.60
2022-09-07T17:26:47.503Z,27.60
2022-09-07T17:43:53.599Z,28.20
2022-09-07T17:52:03.980Z,27.00
2022-09-07T18:04:32.210Z,26.40
2022-09-07T18:07:39.858Z,26.20
2022-09-07T18:38:32.640Z,25.40
2022-09-07T18:41:09.621Z,25.10
2022-09-07T19:10:06.812Z,24.30
2022-09-07T19:16:49.961Z,24.10
2022-09-07T19:20:03.250Z,23.60
2022-09-07T19:22:52.423Z,23.90
2022-09-07T19:25:41.451Z,24.00
2022-09-07T19:57:19.740Z,24.10
2022-09-07T20:01:08.321Z,24.30
2022-09-07T20:06:30.232Z,24.40
2022-09-07T20:09:05.627Z,24.30
2022-09-07T20:27:36.984Z,23.50
2022-09-07T20:30:33.656Z,23.30
2022-09-07T20:33:10.425Z,23.20
2022-09-07T20:39:42.219Z,22.90
2022-09-07T20:42:18.753Z,22.70
2022-09-07T20:45:10.898Z,22.70
2022-09-07T21:14:12.300Z,22.40
2022-09-07T21:17:57.196Z,22.40
2022-09-07T21:21:18.074Z,22.30
2022-09-07T21:24:12.341Z,22.40
2022-09-07T21:27:37.648Z,22.60
2022-09-07T21:30:10.309Z,22.90
2022-09-07T21:32:40.356Z,23.10
2022-09-07T21:35:10.696Z,23.30
2022-09-07T21:37:38.967Z,23.40
2022-09-07T21:40:10.557Z,23.60
2022-09-07T21:42:38.930Z,23.70
2022-09-07T21:45:09.105Z,23.70
2022-09-07T21:47:37.518Z,23.50
2022-09-07T21:50:08.174Z,23.40
2022-09-07T21:52:38.802Z,23.20
2022-09-07T21:55:11.820Z,23.00
2022-09-07T21:58:12.520Z,22.90
2022-09-07T22:00:41.029Z,22.80
2022-09-07T22:03:10.729Z,23.10
2022-09-07T22:05:43.514Z,23.00
2022-09-07T22:08:16.350Z,22.90
2022-09-07T22:10:53.208Z,22.70
2022-09-07T22:13:31.910Z,22.60
2022-09-07T22:16:07.887Z,22.50
2022-09-07T22:18:51.000Z,22.40
2022-09-07T22:24:32.635Z,22.70
2022-09-07T22:27:11.630Z,23.10
2022-09-07T22:30:01.243Z,23.30
2022-09-07T22:33:05.834Z,23.50
2022-09-07T22:35:57.096Z,23.40
2022-09-07T22:39:15.200Z,23.60
2022-09-07T22:42:20.019Z,23.60
2022-09-07T22:45:12.018Z,23.10
2022-09-07T22:47:50.648Z,23.30
2022-09-07T22:50:20.291Z,23.30
2022-09-07T22:52:49.294Z,23.20
2022-09-07T22:55:18.943Z,23.10
2022-09-07T22:57:48.001Z,23.30
2022-09-07T23:00:16.932Z,22.90
2022-09-07T23:02:45.368Z,22.60
2022-09-07T23:05:14.064Z,22.50
2022-09-07T23:07:44.666Z,22.40
2022-09-07T23:10:13.193Z,22.10
2022-09-07T23:12:42.862Z,22.10
2022-09-07T23:15:12.844Z,22.20
2022-09-07T23:17:44.458Z,22.20
2022-09-07T23:20:13.032Z,22.30
2022-09-07T23:22:44.992Z,22.40
2022-09-07T23:25:14.194Z,22.50
2022-09-07T23:27:44.055Z,22.40
2022-09-07T23:30:13.981Z,22.20
2022-09-07T23:32:42.435Z,22.10
2022-09-07T23:35:16.450Z,22.10
2022-09-07T23:37:45.213Z,22.10
2022-09-07T23:40:15.849Z,22.20
2022-09-07T23:42:45.655Z,22.30
2022-09-07T23:45:14.417Z,22.10
2022-09-07T23:47:42.800Z,22.10
2022-09-07T23:50:12.029Z,22.10
2022-09-07T23:52:40.506Z,22.20
2022-09-07T23:55:10.973Z,22.40
2022-09-07T23:57:39.821Z,22.40
